createdAt,value
2017-01-08T00:00:14.365Z,0
2017-01-08T00:01:14.353Z,0
2017-01-08T00:02:14.359Z,0
2017-01-08T00:03:14.318Z,0
2017-01-08T00:04:14.306Z,0
2017-01-08T00:05:14.286Z,0
2017-01-08T00:06:14.274Z,0
2017-01-08T00:07:14.258Z,0
2017-01-08T00:08:14.267Z,0
2017-01-08T00:09:14.229Z,0
2017-01-08T00:10:14.209Z,0
2017-01-08T00:11:14.199Z,0
2017-01-08T00:12:14.180Z,0
2017-01-08T00:13:14.164Z,0
2017-01-08T00:14:14.151Z,0
2017-01-08T00:15:14.133Z,0
2017-01-08T00:16:14.113Z,0
2017-01-08T00:17:14.103Z,0
2017-01-08T00:18:14.091Z,0
2017-01-08T00:19:14.072Z,0
2017-01-08T00:20:14.053Z,0
2017-01-08T00:21:14.039Z,0
2017-01-08T00:22:14.024Z,0
2017-01-08T00:23:14.007Z,0
2017-01-08T00:24:13.992Z,0
2017-01-08T00:25:13.976Z,0
2017-01-08T00:26:13.984Z,0
2017-01-08T00:27:13.946Z,0
2017-01-08T00:28:14.320Z,0
2017-01-08T00:29:13.912Z,0
2017-01-08T00:30:13.900Z,0
2017-01-08T00:31:13.881Z,0
2017-01-08T00:32:13.870Z,0
2017-01-08T00:33:13.855Z,0
2017-01-08T00:34:13.835Z,0
2017-01-08T00:35:13.850Z,0
2017-01-08T00:36:13.808Z,0
2017-01-08T00:37:13.794Z,0
2017-01-08T00:38:13.777Z,0
2017-01-08T00:39:13.764Z,0
2017-01-08T00:40:13.745Z,0
2017-01-08T00:41:13.729Z,0
2017-01-08T00:42:13.714Z,0
2017-01-08T00:43:13.697Z,0
2017-01-08T00:44:13.683Z,0
2017-01-08T00:45:13.664Z,0
2017-01-08T00:46:13.651Z,0
2017-01-08T00:47:13.634Z,0
2017-01-08T00:48:14.005Z,0
2017-01-08T00:49:13.603Z,0
2017-01-08T00:50:13.594Z,0
2017-01-08T00:51:13.574Z,0
2017-01-08T00:52:13.567Z,0
2017-01-08T00:53:13.542Z,0
2017-01-08T00:54:13.542Z,0
2017-01-08T00:55:13.513Z,0
2017-01-08T00:56:13.495Z,0
2017-01-08T00:57:13.486Z,0
2017-01-08T00:58:13.466Z,0
2017-01-08T00:59:13.452Z,0
2017-01-08T01:00:13.433Z,0
2017-01-08T01:01:13.421Z,0
2017-01-08T01:02:13.403Z,0
2017-01-08T01:03:13.388Z,0
2017-01-08T01:04:13.370Z,0
2017-01-08T01:05:13.356Z,0
2017-01-08T01:06:13.343Z,0
2017-01-08T01:07:13.325Z,0
2017-01-08T01:08:13.319Z,0
2017-01-08T01:09:13.314Z,0
2017-01-08T01:10:13.279Z,0
2017-01-08T01:11:13.266Z,0
2017-01-08T01:12:13.252Z,0
2017-01-08T01:13:13.243Z,0
2017-01-08T01:14:13.220Z,0
2017-01-08T01:15:13.205Z,0
2017-01-08T01:16:13.574Z,0
2017-01-08T01:17:13.174Z,0
2017-01-08T01:18:13.160Z,0
2017-01-08T01:19:13.141Z,0
2017-01-08T01:20:13.128Z,0
2017-01-08T01:21:13.111Z,0
2017-01-08T01:22:13.100Z,0
2017-01-08T01:23:13.084Z,0
2017-01-08T01:24:13.454Z,0
2017-01-08T01:25:13.052Z,0
2017-01-08T01:26:13.038Z,0
2017-01-08T01:27:13.018Z,0
2017-01-08T01:28:13.007Z,0
2017-01-08T01:29:12.989Z,0
2017-01-08T01:30:12.978Z,0
2017-01-08T01:31:12.957Z,0
2017-01-08T01:32:12.943Z,0
2017-01-08T01:33:12.925Z,0
2017-01-08T01:34:12.915Z,0
2017-01-08T01:35:12.896Z,0
2017-01-08T01:36:12.882Z,0
2017-01-08T01:37:12.869Z,0
2017-01-08T01:38:12.855Z,0
2017-01-08T01:39:12.836Z,0
2017-01-08T01:40:12.819Z,0
2017-01-08T01:41:12.806Z,0
2017-01-08T01:42:12.789Z,0
2017-01-08T01:43:12.778Z,0
2017-01-08T01:44:12.760Z,0
2017-01-08T01:45:12.776Z,0
2017-01-08T01:46:12.729Z,0
2017-01-08T01:47:12.715Z,0
2017-01-08T01:48:12.696Z,0
2017-01-08T01:49:12.681Z,0
2017-01-08T01:50:12.672Z,0
2017-01-08T01:51:12.650Z,0
2017-01-08T01:52:13.027Z,0
2017-01-08T01:53:13.005Z,0
2017-01-08T01:54:12.606Z,0
2017-01-08T01:55:12.587Z,0
2017-01-08T01:56:12.574Z,0
2017-01-08T01:57:12.559Z,0
2017-01-08T01:58:12.546Z,0
2017-01-08T01:59:12.525Z,0
2017-01-08T02:00:12.512Z,0
2017-01-08T02:01:12.882Z,0
2017-01-08T02:02:12.482Z,0
2017-01-08T02:03:12.502Z,0
2017-01-08T02:04:12.451Z,0
2017-01-08T02:05:12.468Z,0
2017-01-08T02:06:12.418Z,0
2017-01-08T02:07:12.414Z,0
2017-01-08T02:08:12.389Z,0
2017-01-08T02:09:12.371Z,0
2017-01-08T02:10:12.360Z,0
2017-01-08T02:11:12.343Z,0
2017-01-08T02:12:12.327Z,0
2017-01-08T02:13:12.316Z,0
2017-01-08T02:14:12.294Z,0
2017-01-08T02:15:12.283Z,0
2017-01-08T02:16:12.271Z,0
2017-01-08T02:17:12.251Z,0
2017-01-08T02:18:12.239Z,0
2017-01-08T02:19:12.223Z,0
2017-01-08T02:20:12.206Z,0
2017-01-08T02:21:12.189Z,0
2017-01-08T02:22:12.586Z,0
2017-01-08T02:23:12.158Z,0
2017-01-08T02:24:12.145Z,0
2017-01-08T02:25:12.128Z,0
2017-01-08T02:26:12.498Z,0
2017-01-08T02:27:12.102Z,0
2017-01-08T02:28:12.082Z,0
2017-01-08T02:29:12.067Z,0
2017-01-08T02:30:12.050Z,0
2017-01-08T02:31:12.035Z,0
2017-01-08T02:32:12.020Z,0
2017-01-08T02:33:12.008Z,0
2017-01-08T02:34:12.375Z,0
2017-01-08T02:35:11.974Z,0
2017-01-08T02:36:11.957Z,0
2017-01-08T02:37:11.942Z,0
2017-01-08T02:38:11.926Z,0
2017-01-08T02:39:11.912Z,0
2017-01-08T02:40:11.905Z,0
2017-01-08T02:41:11.887Z,0
2017-01-08T02:42:11.871Z,0
2017-01-08T02:43:11.851Z,0
2017-01-08T02:44:11.834Z,0
2017-01-08T02:45:11.820Z,0
2017-01-08T02:46:11.808Z,0
2017-01-08T02:47:11.791Z,0
2017-01-08T02:48:11.770Z,0
2017-01-08T02:49:11.766Z,0
2017-01-08T02:50:11.742Z,0
2017-01-08T02:51:11.727Z,0
2017-01-08T02:52:11.712Z,0
2017-01-08T02:53:11.697Z,0
2017-01-08T02:54:11.684Z,0
2017-01-08T02:55:12.049Z,0
2017-01-08T02:56:11.651Z,0
2017-01-08T02:57:11.636Z,0
2017-01-08T02:58:11.620Z,0
2017-01-08T02:59:11.606Z,0
2017-01-08T03:00:11.632Z,0
2017-01-08T03:01:11.571Z,0
2017-01-08T03:02:11.558Z,0
2017-01-08T03:03:11.541Z,0
2017-01-08T03:04:11.535Z,0
2017-01-08T03:05:11.510Z,0
2017-01-08T03:06:11.513Z,0
2017-01-08T03:07:11.487Z,0
2017-01-08T03:08:11.466Z,0
2017-01-08T03:09:11.461Z,0
2017-01-08T03:10:11.433Z,0
2017-01-08T03:11:11.421Z,0
2017-01-08T03:12:11.403Z,0
2017-01-08T03:13:11.777Z,0
2017-01-08T03:14:11.376Z,0
2017-01-08T03:15:11.355Z,0
2017-01-08T03:16:11.345Z,0
2017-01-08T03:17:11.326Z,0
2017-01-08T03:18:11.313Z,0
2017-01-08T03:19:11.289Z,0
2017-01-08T03:20:11.276Z,0
2017-01-08T03:21:11.261Z,0
2017-01-08T03:22:11.246Z,0
2017-01-08T03:23:11.231Z,0
2017-01-08T03:24:11.212Z,0
2017-01-08T03:25:11.201Z,0
2017-01-08T03:26:11.191Z,0
2017-01-08T03:27:11.169Z,0
2017-01-08T03:28:11.149Z,0
2017-01-08T03:29:11.139Z,0
2017-01-08T03:30:11.119Z,0
2017-01-08T03:31:11.494Z,0
2017-01-08T03:32:11.088Z,0
2017-01-08T03:33:11.074Z,0
2017-01-08T03:34:11.057Z,0
2017-01-08T03:35:11.040Z,0
2017-01-08T03:36:11.031Z,0
2017-01-08T03:37:11.010Z,0
2017-01-08T03:38:10.996Z,0
2017-01-08T03:39:10.982Z,0
2017-01-08T03:40:10.969Z,0
2017-01-08T03:41:10.945Z,0
2017-01-08T03:42:10.935Z,0
2017-01-08T03:43:10.919Z,0
2017-01-08T03:44:10.908Z,0
2017-01-08T03:45:10.885Z,0
2017-01-08T03:46:11.258Z,0
2017-01-08T03:47:10.855Z,0
2017-01-08T03:48:10.840Z,0
2017-01-08T03:49:10.834Z,0
2017-01-08T03:50:10.807Z,0
2017-01-08T03:51:10.791Z,0
2017-01-08T03:52:10.777Z,0
2017-01-08T03:53:10.774Z,0
2017-01-08T03:54:10.752Z,0
2017-01-08T03:55:10.733Z,0
2017-01-08T03:56:10.713Z,0
2017-01-08T03:57:10.727Z,0
2017-01-08T03:58:10.683Z,0
2017-01-08T03:59:10.669Z,0
2017-01-08T04:00:10.651Z,0
2017-01-08T04:01:10.637Z,0
2017-01-08T04:02:10.621Z,0
2017-01-08T04:03:10.609Z,0
2017-01-08T04:04:10.593Z,0
2017-01-08T04:05:10.573Z,0
2017-01-08T04:06:10.559Z,0
2017-01-08T04:07:10.542Z,0
2017-01-08T04:08:10.528Z,0
2017-01-08T04:09:10.512Z,0
2017-01-08T04:10:10.515Z,0
2017-01-08T04:11:10.479Z,0
2017-01-08T04:12:10.466Z,0
2017-01-08T04:13:10.451Z,0
2017-01-08T04:14:10.437Z,0
2017-01-08T04:15:10.419Z,0
2017-01-08T04:16:10.404Z,0
2017-01-08T04:17:10.387Z,0
2017-01-08T04:18:10.372Z,0
2017-01-08T04:19:10.360Z,0
2017-01-08T04:20:10.341Z,0
2017-01-08T04:21:10.326Z,0
2017-01-08T04:22:10.342Z,0
2017-01-08T04:23:10.295Z,0
2017-01-08T04:24:10.281Z,0
2017-01-08T04:25:10.264Z,0
2017-01-08T04:26:10.248Z,0
2017-01-08T04:27:10.234Z,0
2017-01-08T04:28:10.219Z,0
2017-01-08T04:29:10.203Z,0
2017-01-08T04:30:10.187Z,0
2017-01-08T04:31:10.180Z,0
2017-01-08T04:32:10.156Z,0
2017-01-08T04:33:10.141Z,0
2017-01-08T04:34:10.125Z,0
2017-01-08T04:35:10.111Z,0
2017-01-08T04:36:10.103Z,0
2017-01-08T04:37:10.080Z,0
2017-01-08T04:38:10.081Z,0
2017-01-08T04:39:10.047Z,0
2017-01-08T04:40:10.041Z,0
2017-01-08T04:41:10.017Z,0
2017-01-08T04:42:10.006Z,0
2017-01-08T04:43:09.991Z,0
2017-01-08T04:44:09.974Z,0
2017-01-08T04:45:10.346Z,0
2017-01-08T04:46:09.939Z,0
2017-01-08T04:47:09.930Z,0
2017-01-08T04:48:09.920Z,0
2017-01-08T04:49:09.896Z,0
2017-01-08T04:50:09.881Z,0
2017-01-08T04:51:09.863Z,0
2017-01-08T04:52:09.853Z,0
2017-01-08T04:53:09.834Z,0
2017-01-08T04:54:09.819Z,0
2017-01-08T04:55:09.803Z,0
2017-01-08T04:56:09.791Z,0
2017-01-08T04:57:09.770Z,0
2017-01-08T04:58:09.757Z,0
2017-01-08T04:59:09.740Z,0
2017-01-08T05:00:09.728Z,0
2017-01-08T05:01:09.710Z,0
2017-01-08T05:02:09.697Z,0
2017-01-08T05:03:09.680Z,0
2017-01-08T05:04:09.668Z,0
2017-01-08T05:05:09.651Z,0
2017-01-08T05:06:09.640Z,0
2017-01-08T05:07:09.617Z,0
2017-01-08T05:08:09.607Z,0
2017-01-08T05:09:09.589Z,0
2017-01-08T05:10:09.579Z,0
2017-01-08T05:11:09.556Z,0
2017-01-08T05:12:09.544Z,0
2017-01-08T05:13:09.525Z,0
2017-01-08T05:14:09.517Z,0
2017-01-08T05:15:09.498Z,0
2017-01-08T05:16:09.481Z,0
2017-01-08T05:17:09.466Z,0
2017-01-08T05:18:09.838Z,0
2017-01-08T05:19:09.454Z,0
2017-01-08T05:20:09.422Z,0
2017-01-08T05:21:09.406Z,0
2017-01-08T05:22:09.394Z,0
2017-01-08T05:23:09.371Z,0
2017-01-08T05:24:09.362Z,0
2017-01-08T05:25:09.344Z,0
2017-01-08T05:26:09.329Z,0
2017-01-08T05:27:09.312Z,0
2017-01-08T05:28:09.297Z,0
2017-01-08T05:29:09.289Z,0
2017-01-08T05:30:09.261Z,0
2017-01-08T05:31:09.251Z,0
2017-01-08T05:32:09.236Z,0
2017-01-08T05:33:09.222Z,0
2017-01-08T05:34:09.207Z,0
2017-01-08T05:35:09.187Z,0
2017-01-08T05:36:09.170Z,0
2017-01-08T05:37:09.156Z,0
2017-01-08T05:38:09.141Z,0
2017-01-08T05:39:09.128Z,0
2017-01-08T05:40:09.114Z,0
2017-01-08T05:41:09.093Z,0
2017-01-08T05:42:09.081Z,0
2017-01-08T05:43:09.093Z,0
2017-01-08T05:44:09.046Z,0
2017-01-08T05:45:09.031Z,0
2017-01-08T05:46:09.022Z,0
2017-01-08T05:47:09.007Z,0
2017-01-08T05:48:08.984Z,0
2017-01-08T05:49:08.970Z,0
2017-01-08T05:50:08.953Z,0
2017-01-08T05:51:08.939Z,0
2017-01-08T05:52:08.925Z,0
2017-01-08T05:53:08.905Z,0
2017-01-08T05:54:08.903Z,0
2017-01-08T05:55:08.879Z,0
2017-01-08T05:56:08.858Z,0
2017-01-08T05:57:08.843Z,0
2017-01-08T05:58:08.829Z,0
2017-01-08T05:59:08.812Z,0
2017-01-08T06:00:08.796Z,0
2017-01-08T06:01:08.785Z,0
2017-01-08T06:02:08.765Z,0
2017-01-08T06:03:08.755Z,0
2017-01-08T06:04:08.736Z,0
2017-01-08T06:05:08.718Z,0
2017-01-08T06:06:08.707Z,0
2017-01-08T06:07:08.687Z,0
2017-01-08T06:08:08.675Z,0
2017-01-08T06:09:08.664Z,0
2017-01-08T06:10:08.642Z,0
2017-01-08T06:11:08.628Z,0
2017-01-08T06:12:08.610Z,0
2017-01-08T06:13:08.597Z,0
2017-01-08T06:14:08.580Z,0
2017-01-08T06:15:08.569Z,0
2017-01-08T06:16:08.552Z,0
2017-01-08T06:17:08.537Z,0
2017-01-08T06:18:08.517Z,0
2017-01-08T06:19:08.505Z,0
2017-01-08T06:20:08.525Z,0
2017-01-08T06:21:08.472Z,0
2017-01-08T06:22:08.461Z,0
2017-01-08T06:23:08.442Z,0
2017-01-08T06:24:08.426Z,0
2017-01-08T06:25:08.409Z,0
2017-01-08T06:26:08.394Z,0
2017-01-08T06:27:08.378Z,0
2017-01-08T06:28:08.373Z,0
2017-01-08T06:29:08.352Z,0
2017-01-08T06:30:08.334Z,0
2017-01-08T06:31:08.321Z,0
2017-01-08T06:32:08.299Z,0
2017-01-08T06:33:08.286Z,0
2017-01-08T06:34:08.269Z,0
2017-01-08T06:35:08.256Z,0
2017-01-08T06:36:08.242Z,0
2017-01-08T06:37:08.221Z,4
2017-01-08T06:38:08.234Z,4
2017-01-08T06:39:08.194Z,0
2017-01-08T06:40:08.180Z,0
2017-01-08T06:41:08.161Z,4
2017-01-08T06:42:08.171Z,4
2017-01-08T06:43:08.134Z,4
2017-01-08T06:44:08.112Z,4
2017-01-08T06:45:08.100Z,8
2017-01-08T06:46:08.081Z,8
2017-01-08T06:47:08.070Z,8
2017-01-08T06:48:08.050Z,12
2017-01-08T06:49:08.036Z,8
2017-01-08T06:50:08.413Z,12
2017-01-08T06:51:08.004Z,12
2017-01-08T06:52:07.994Z,12
2017-01-08T06:53:07.971Z,12
2017-01-08T06:54:07.955Z,12
2017-01-08T06:55:08.329Z,16
2017-01-08T06:56:07.922Z,20
2017-01-08T06:57:07.911Z,20
2017-01-08T06:58:07.893Z,28
2017-01-08T06:59:07.878Z,28
2017-01-08T07:00:08.247Z,36
2017-01-08T07:01:07.851Z,40
2017-01-08T07:02:07.831Z,48
2017-01-08T07:03:07.815Z,56
2017-01-08T07:04:07.799Z,60
2017-01-08T07:05:07.785Z,68
2017-01-08T07:06:07.768Z,76
2017-01-08T07:07:07.764Z,80
2017-01-08T07:08:07.736Z,88
2017-01-08T07:09:07.721Z,96
2017-01-08T07:10:08.096Z,100
2017-01-08T07:11:07.690Z,108
2017-01-08T07:12:07.674Z,116
2017-01-08T07:13:07.655Z,124
2017-01-08T07:14:07.644Z,132
2017-01-08T07:15:07.622Z,156
2017-01-08T07:16:07.610Z,176
2017-01-08T07:17:07.593Z,188
2017-01-08T07:18:07.603Z,200
2017-01-08T07:19:07.560Z,224
2017-01-08T07:20:07.550Z,252
2017-01-08T07:21:07.530Z,264
2017-01-08T07:22:07.516Z,280
2017-01-08T07:23:07.499Z,312
2017-01-08T07:24:07.485Z,324
2017-01-08T07:25:07.467Z,320
2017-01-08T07:26:07.451Z,312
2017-01-08T07:27:07.433Z,332
2017-01-08T07:28:07.418Z,384
2017-01-08T07:29:07.400Z,400
2017-01-08T07:30:07.387Z,436
2017-01-08T07:31:07.369Z,476
2017-01-08T07:32:07.354Z,504
2017-01-08T07:33:07.339Z,528
2017-01-08T07:34:07.323Z,532
2017-01-08T07:35:07.310Z,544
2017-01-08T07:36:07.291Z,556
2017-01-08T07:37:07.278Z,560
2017-01-08T07:38:07.257Z,568
2017-01-08T07:39:07.243Z,584
2017-01-08T07:40:07.227Z,584
2017-01-08T07:41:07.212Z,608
2017-01-08T07:42:07.196Z,608
2017-01-08T07:43:07.180Z,616
2017-01-08T07:44:07.163Z,616
2017-01-08T07:45:07.156Z,596
2017-01-08T07:46:07.131Z,608
2017-01-08T07:47:07.116Z,600
2017-01-08T07:48:07.104Z,600
2017-01-08T07:49:07.089Z,632
2017-01-08T07:50:07.068Z,652
2017-01-08T07:51:07.051Z,700
2017-01-08T07:52:07.042Z,736
2017-01-08T07:53:07.023Z,776
2017-01-08T07:54:07.002Z,800
2017-01-08T07:55:07.378Z,828
2017-01-08T07:56:06.972Z,864
2017-01-08T07:57:06.957Z,892
2017-01-08T07:58:06.942Z,896
2017-01-08T07:59:06.927Z,892
2017-01-08T08:00:07.301Z,896
2017-01-08T08:01:06.891Z,924
2017-01-08T08:02:07.267Z,948
2017-01-08T08:03:06.867Z,996
2017-01-08T08:04:06.845Z,1060
2017-01-08T08:05:06.833Z,1116
2017-01-08T08:06:06.811Z,1148
2017-01-08T08:07:06.800Z,1164
2017-01-08T08:08:06.781Z,1180
2017-01-08T08:09:06.768Z,1228
2017-01-08T08:10:06.750Z,1292
2017-01-08T08:11:06.733Z,1376
2017-01-08T08:12:06.716Z,1492
2017-01-08T08:13:06.699Z,1524
2017-01-08T08:14:06.687Z,1472
2017-01-08T08:15:06.669Z,1464
2017-01-08T08:16:06.657Z,1516
2017-01-08T08:17:06.638Z,1612
2017-01-08T08:18:06.621Z,1656
2017-01-08T08:19:06.994Z,1660
2017-01-08T08:20:06.589Z,1672
2017-01-08T08:21:06.576Z,1716
2017-01-08T08:22:06.555Z,1768
2017-01-08T08:23:06.543Z,1820
2017-01-08T08:24:06.916Z,1864
2017-01-08T08:25:06.512Z,1928
2017-01-08T08:26:06.497Z,1996
2017-01-08T08:27:06.478Z,2040
2017-01-08T08:28:06.462Z,2060
2017-01-08T08:29:06.446Z,2088
2017-01-08T08:30:06.435Z,2104
2017-01-08T08:31:06.801Z,2100
2017-01-08T08:32:06.424Z,2140
2017-01-08T08:33:06.385Z,2232
2017-01-08T08:34:06.370Z,2280
2017-01-08T08:35:06.751Z,2232
2017-01-08T08:36:06.334Z,2180
2017-01-08T08:37:06.317Z,2164
2017-01-08T08:38:06.304Z,2148
2017-01-08T08:39:06.289Z,2184
2017-01-08T08:40:06.270Z,2168
2017-01-08T08:41:06.261Z,2116
2017-01-08T08:42:06.245Z,2152
2017-01-08T08:43:06.225Z,2196
2017-01-08T08:44:06.212Z,2208
2017-01-08T08:45:06.195Z,2244
2017-01-08T08:46:06.178Z,2288
2017-01-08T08:47:06.167Z,2296
2017-01-08T08:48:06.147Z,2328
2017-01-08T08:49:06.136Z,2400
2017-01-08T08:50:06.116Z,2464
2017-01-08T08:51:06.101Z,2508
2017-01-08T08:52:06.087Z,2540
2017-01-08T08:53:06.071Z,2600
2017-01-08T08:54:06.057Z,2656
2017-01-08T08:55:06.038Z,2692
2017-01-08T08:56:06.025Z,2704
2017-01-08T08:57:06.007Z,2676
2017-01-08T08:58:05.991Z,2596
2017-01-08T08:59:05.977Z,2528
2017-01-08T09:00:05.962Z,2500
2017-01-08T09:01:05.955Z,2524
2017-01-08T09:02:05.935Z,2588
2017-01-08T09:03:05.935Z,2680
2017-01-08T09:04:05.902Z,2724
2017-01-08T09:05:05.889Z,2748
2017-01-08T09:06:05.872Z,2792
2017-01-08T09:07:05.858Z,2828
2017-01-08T09:08:05.842Z,2848
2017-01-08T09:09:05.828Z,2860
2017-01-08T09:10:06.198Z,2824
2017-01-08T09:11:05.801Z,2832
2017-01-08T09:12:05.806Z,2844
2017-01-08T09:13:05.775Z,2916
2017-01-08T09:14:05.756Z,2968
2017-01-08T09:15:05.741Z,3004
2017-01-08T09:16:05.725Z,3092
2017-01-08T09:17:06.096Z,3152
2017-01-08T09:18:05.694Z,3140
2017-01-08T09:19:05.679Z,3176
2017-01-08T09:20:05.664Z,3172
2017-01-08T09:21:05.650Z,3176
2017-01-08T09:22:05.645Z,3188
2017-01-08T09:23:05.623Z,3220
2017-01-08T09:24:05.605Z,3244
2017-01-08T09:25:05.594Z,3264
2017-01-08T09:26:05.589Z,3260
2017-01-08T09:27:05.560Z,3332
2017-01-08T09:28:05.551Z,3384
2017-01-08T09:29:05.534Z,3412
2017-01-08T09:30:05.523Z,3408
2017-01-08T09:31:05.501Z,3352
2017-01-08T09:32:05.514Z,3296
2017-01-08T09:33:05.475Z,3268
2017-01-08T09:34:05.462Z,3372
2017-01-08T09:35:05.449Z,3416
2017-01-08T09:36:05.431Z,3432
2017-01-08T09:37:05.806Z,3364
2017-01-08T09:38:05.403Z,3268
2017-01-08T09:39:05.779Z,3232
2017-01-08T09:40:05.373Z,3288
2017-01-08T09:41:05.750Z,3296
2017-01-08T09:42:05.344Z,3316
2017-01-08T09:43:05.335Z,3324
2017-01-08T09:44:05.320Z,3324
2017-01-08T09:45:05.307Z,3260
2017-01-08T09:46:05.290Z,3188
2017-01-08T09:47:05.277Z,3132
2017-01-08T09:48:05.261Z,3076
2017-01-08T09:49:05.242Z,3040
2017-01-08T09:50:05.229Z,2952
2017-01-08T09:51:05.601Z,2856
2017-01-08T09:52:05.203Z,2792
2017-01-08T09:53:05.190Z,2816
2017-01-08T09:54:05.173Z,2892
2017-01-08T09:55:05.157Z,3064
2017-01-08T09:56:05.147Z,3108
2017-01-08T09:57:05.513Z,3148
2017-01-08T09:58:05.114Z,3324
2017-01-08T09:59:05.096Z,3548
2017-01-08T10:00:05.085Z,3648
2017-01-08T10:01:05.068Z,3836
2017-01-08T10:02:05.057Z,4052
2017-01-08T10:03:05.041Z,4104
2017-01-08T10:04:05.022Z,3980
2017-01-08T10:05:05.016Z,3868
2017-01-08T10:06:04.999Z,3876
2017-01-08T10:07:04.984Z,3820
2017-01-08T10:08:04.968Z,3748
2017-01-08T10:09:04.955Z,3788
2017-01-08T10:10:05.326Z,3852
2017-01-08T10:11:04.928Z,3912
2017-01-08T10:12:04.907Z,3924
2017-01-08T10:13:04.898Z,3992
2017-01-08T10:14:04.880Z,3968
2017-01-08T10:15:04.868Z,4032
2017-01-08T10:16:04.851Z,4140
2017-01-08T10:17:04.835Z,4132
2017-01-08T10:18:04.823Z,4032
2017-01-08T10:19:04.805Z,3892
2017-01-08T10:20:04.825Z,3880
2017-01-08T10:21:04.778Z,3988
2017-01-08T10:22:04.764Z,3924
2017-01-08T10:23:04.753Z,3896
2017-01-08T10:24:04.735Z,3916
2017-01-08T10:25:04.724Z,4044
2017-01-08T10:26:04.708Z,4084
2017-01-08T10:27:04.696Z,4072
2017-01-08T10:28:04.679Z,4104
2017-01-08T10:29:04.664Z,4144
2017-01-08T10:30:05.037Z,3988
2017-01-08T10:31:04.635Z,4020
2017-01-08T10:32:04.620Z,3988
2017-01-08T10:33:04.993Z,4080
2017-01-08T10:34:04.595Z,4152
2017-01-08T10:35:04.580Z,4204
2017-01-08T10:36:04.566Z,4288
2017-01-08T10:37:04.550Z,4392
2017-01-08T10:38:04.538Z,4520
2017-01-08T10:39:04.520Z,4608
2017-01-08T10:40:04.511Z,4536
2017-01-08T10:41:04.492Z,4456
2017-01-08T10:42:04.513Z,4664
2017-01-08T10:43:04.470Z,4820
2017-01-08T10:44:04.453Z,4688
2017-01-08T10:45:04.436Z,4676
2017-01-08T10:46:04.811Z,4832
2017-01-08T10:47:04.412Z,4920
2017-01-08T10:48:04.394Z,4884
2017-01-08T10:49:04.380Z,4728
2017-01-08T10:50:04.368Z,4468
2017-01-08T10:51:04.360Z,4404
2017-01-08T10:52:04.339Z,4264
2017-01-08T10:53:04.326Z,4272
2017-01-08T10:54:04.311Z,4248
2017-01-08T10:55:04.294Z,4280
2017-01-08T10:56:04.285Z,4304
2017-01-08T10:57:04.272Z,4316
2017-01-08T10:58:04.253Z,4412
2017-01-08T10:59:04.239Z,4492
2017-01-08T11:00:04.611Z,4696
2017-01-08T11:01:04.212Z,4796
2017-01-08T11:02:04.196Z,4844
2017-01-08T11:03:04.184Z,4840
2017-01-08T11:04:04.170Z,4796
2017-01-08T11:05:04.157Z,4820
2017-01-08T11:06:04.145Z,5012
2017-01-08T11:07:04.124Z,4992
2017-01-08T11:08:04.117Z,4984
2017-01-08T11:09:04.098Z,5024
2017-01-08T11:10:04.479Z,4924
2017-01-08T11:11:04.068Z,4904
2017-01-08T11:12:04.058Z,5036
2017-01-08T11:13:04.052Z,5096
2017-01-08T11:14:04.046Z,5160
2017-01-08T11:15:04.012Z,5108
2017-01-08T11:16:03.999Z,4984
2017-01-08T11:17:03.985Z,4940
2017-01-08T11:18:03.968Z,4964
2017-01-08T11:19:03.954Z,5080
2017-01-08T11:20:03.943Z,5180
2017-01-08T11:21:03.927Z,5212
2017-01-08T11:22:03.914Z,5224
2017-01-08T11:23:03.897Z,5204
2017-01-08T11:24:03.885Z,5008
2017-01-08T11:25:03.881Z,4828
2017-01-08T11:26:04.244Z,4736
2017-01-08T11:27:03.846Z,4784
2017-01-08T11:28:03.828Z,4832
2017-01-08T11:29:03.815Z,4972
2017-01-08T11:30:03.803Z,4980
2017-01-08T11:31:03.786Z,4772
2017-01-08T11:32:03.770Z,4604
2017-01-08T11:33:03.758Z,4536
2017-01-08T11:34:03.748Z,4492
2017-01-08T11:35:03.731Z,4440
2017-01-08T11:36:03.714Z,4404
2017-01-08T11:37:03.702Z,4424
2017-01-08T11:38:03.690Z,4528
2017-01-08T11:39:03.671Z,4520
2017-01-08T11:40:03.664Z,4540
2017-01-08T11:41:03.643Z,4576
2017-01-08T11:42:04.016Z,4576
2017-01-08T11:43:03.619Z,4576
2017-01-08T11:44:03.601Z,4676
2017-01-08T11:45:03.613Z,4896
2017-01-08T11:46:03.574Z,5060
2017-01-08T11:47:03.563Z,5024
2017-01-08T11:48:03.546Z,4916
2017-01-08T11:49:03.530Z,4660
2017-01-08T11:50:03.520Z,4572
2017-01-08T11:51:03.507Z,4532
2017-01-08T11:52:03.491Z,4548
2017-01-08T11:53:03.860Z,4504
2017-01-08T11:54:03.460Z,4504
2017-01-08T11:55:03.860Z,4604
2017-01-08T11:56:03.466Z,4712
2017-01-08T11:57:03.421Z,4732
2017-01-08T11:58:03.404Z,4616
2017-01-08T11:59:03.426Z,4424
2017-01-08T12:00:03.377Z,4336
2017-01-08T12:01:03.363Z,4400
2017-01-08T12:02:03.349Z,4524
2017-01-08T12:03:03.370Z,4592
2017-01-08T12:04:03.323Z,4564
2017-01-08T12:05:03.306Z,4524
2017-01-08T12:06:03.297Z,4600
2017-01-08T12:07:03.314Z,4712
2017-01-08T12:08:03.655Z,4728
2017-01-08T12:09:03.257Z,4736
2017-01-08T12:10:03.240Z,4724
2017-01-08T12:11:03.222Z,4776
2017-01-08T12:12:03.599Z,4800
2017-01-08T12:13:03.613Z,4720
2017-01-08T12:14:03.180Z,4560
2017-01-08T12:15:03.181Z,4448
2017-01-08T12:16:03.547Z,4408
2017-01-08T12:17:03.139Z,4360
2017-01-08T12:18:03.124Z,4256
2017-01-08T12:19:03.128Z,4132
2017-01-08T12:20:03.101Z,4008
2017-01-08T12:21:03.086Z,3924
2017-01-08T12:22:03.076Z,3908
2017-01-08T12:23:03.057Z,3948
2017-01-08T12:24:03.044Z,3964
2017-01-08T12:25:03.033Z,3956
2017-01-08T12:26:03.402Z,3952
2017-01-08T12:27:02.998Z,3996
2017-01-08T12:28:02.984Z,4052
2017-01-08T12:29:02.973Z,4068
2017-01-08T12:30:02.959Z,4048
2017-01-08T12:31:02.946Z,4040
2017-01-08T12:32:02.929Z,4024
2017-01-08T12:33:02.923Z,4016
2017-01-08T12:34:02.901Z,4016
2017-01-08T12:35:02.889Z,3984
2017-01-08T12:36:03.264Z,3936
2017-01-08T12:37:02.861Z,3880
2017-01-08T12:38:03.234Z,3844
2017-01-08T12:39:02.833Z,3892
2017-01-08T12:40:02.818Z,3972
2017-01-08T12:41:02.800Z,4052
2017-01-08T12:42:02.789Z,4132
2017-01-08T12:43:03.165Z,4172
2017-01-08T12:44:02.762Z,4132
2017-01-08T12:45:02.748Z,4016
2017-01-08T12:46:02.736Z,3868
2017-01-08T12:47:02.722Z,3956
2017-01-08T12:48:02.704Z,3936
2017-01-08T12:49:02.690Z,3960
2017-01-08T12:50:03.066Z,3968
2017-01-08T12:51:02.693Z,3944
2017-01-08T12:52:02.650Z,3828
2017-01-08T12:53:02.635Z,3708
2017-01-08T12:54:02.625Z,3572
2017-01-08T12:55:02.610Z,3628
2017-01-08T12:56:02.590Z,3972
2017-01-08T12:57:02.576Z,4052
2017-01-08T12:58:02.563Z,3924
2017-01-08T12:59:02.551Z,3780
2017-01-08T13:00:02.537Z,3684
2017-01-08T13:01:02.519Z,3552
2017-01-08T13:02:02.515Z,3376
2017-01-08T13:03:02.493Z,3252
2017-01-08T13:04:02.479Z,3292
2017-01-08T13:05:02.467Z,3328
2017-01-08T13:06:02.451Z,3372
2017-01-08T13:07:02.827Z,3196
2017-01-08T13:08:02.424Z,3048
2017-01-08T13:09:02.412Z,2796
2017-01-08T13:10:02.402Z,2896
2017-01-08T13:11:02.380Z,2960
2017-01-08T13:12:02.365Z,2868
2017-01-08T13:13:02.355Z,3048
2017-01-08T13:14:02.724Z,3060
2017-01-08T13:15:02.320Z,2916
2017-01-08T13:16:02.309Z,2944
2017-01-08T13:17:02.297Z,3056
2017-01-08T13:18:02.285Z,3164
2017-01-08T13:19:02.265Z,3188
2017-01-08T13:20:02.252Z,3060
2017-01-08T13:21:02.233Z,2860
2017-01-08T13:22:02.612Z,2832
2017-01-08T13:23:02.208Z,2564
2017-01-08T13:24:02.191Z,2536
2017-01-08T13:25:02.176Z,2480
2017-01-08T13:26:02.165Z,2456
2017-01-08T13:27:02.537Z,2548
2017-01-08T13:28:02.132Z,2408
2017-01-08T13:29:02.124Z,2344
2017-01-08T13:30:02.107Z,2424
2017-01-08T13:31:02.089Z,2624
2017-01-08T13:32:02.074Z,2676
2017-01-08T13:33:02.066Z,2628
2017-01-08T13:34:02.046Z,2568
2017-01-08T13:35:02.032Z,2516
2017-01-08T13:36:02.024Z,2456
2017-01-08T13:37:02.003Z,2400
2017-01-08T13:38:01.987Z,2336
2017-01-08T13:39:02.362Z,2280
2017-01-08T13:40:01.958Z,2220
2017-01-08T13:41:01.952Z,2136
2017-01-08T13:42:01.933Z,2108
2017-01-08T13:43:01.919Z,2008
2017-01-08T13:44:01.905Z,1944
2017-01-08T13:45:01.884Z,1928
2017-01-08T13:46:01.874Z,1892
2017-01-08T13:47:01.855Z,1796
2017-01-08T13:48:01.843Z,1708
2017-01-08T13:49:01.828Z,1736
2017-01-08T13:50:01.814Z,1736
2017-01-08T13:51:01.795Z,1652
2017-01-08T13:52:01.788Z,1612
2017-01-08T13:53:01.765Z,1624
2017-01-08T13:54:01.756Z,1692
2017-01-08T13:55:01.738Z,1712
2017-01-08T13:56:01.728Z,1712
2017-01-08T13:57:01.708Z,1696
2017-01-08T13:58:01.697Z,1664
2017-01-08T13:59:01.680Z,1672
2017-01-08T14:00:02.052Z,1684
2017-01-08T14:01:01.656Z,1712
2017-01-08T14:02:01.639Z,1736